aviador You're here:

KPIA Decoded Metar

PEORIA in IL, USA
Report Time2017-11-25 02:54:00
UTC Time2017-11-25 03:29:55
Flight Rules vfr VFR
Wind300° at 07 kt
W.Decomp.*RWY 31: 6.9 kt HW 1.3 kt LCW
RWY 22: 1.3 kt HW 6.9 kt RCW
W.Rank300° ranks 4
Current wind is below 300° avg. (7.9)
Visibility9999 m
Phenomena:N/A
Clouds:Scattered 075 Hf
Expected CloudBase > 3,600 ft AGL from Temp-Dew spread
CeilingNone
Temp15°C (ISA +1)
Dew Point06°C (55% RH)
AAT11.6°C
QNH1003 hPa
Density Alt1,299 ft
Elevation673 ft
Report Wrong Elevation
Raw Report
KPIA 250254Z 30007KT 10SM SCT075 15/06 A2962 RMK AO2 SLP029
T01500056 53024 $=

Extra information for KPIA:More info

Metar Taf Metar & Taf Last 4 Metars F.Rules Stats Wind Profile Meteogram Temp Stats Airport Information Weather charts Add Link Nearby VenuesMetar ALERT Operation Metar Decoded Social comments

AIRNAV info for KPIA